Driggs, ID

3:07 AM MDT on September 23, 2014 (GMT -0600)
Driggs | Change Station
CLOSE
Current Station
Airport
Location: Driggs,
Elevation: 6227 ft
Nearby Weather Stations

Elev 6227 ft 43.74 °N, 111.10 °W | Updated 11 minutes ago

Overcast
Overcast
55 °F
Feels Like 55 °F
N
5
Wind Variable Wind from SSE

Today
High -- | Low -- °F
--% Chance of Precip.
Yesterday
High -- | Low -- °F
Precip. -- in
7:12 AM 7:19 PM
Waning Crescent, 1% visible
Pressure 30.01 in
Visibility 10.0 miles
Clouds Mostly Cloudy 3900 ft
Overcast 5000 ft
Dew Point 50 °F
Humidity 84%
Rainfall 0.00 in
Snow Depth Not available.
UV 0 out of 12
Pollen 5.30 out of 12
Air Quality Not available.
Flu Activity Not available.
METAR KDIJ 230856Z AUTO 16004KT 10SM BKN039 OVC050 13/10 A3023 RMK AO2 53004 T01270100 OVC V BKN SLP163

More Conditions Fewer Conditions

Pressure 30.01 in
Visibility 10.0 miles
Clouds Mostly Cloudy 3900 ft
Overcast 5000 ft
Dew Point 50 °F
Humidity 84%
Rainfall 0.00 in
Snow Depth Not available.
UV 0 out of 12
Pollen 5.30 out of 12
Air Quality Not available.
Flu Activity Not available.
METAR KDIJ 230856Z AUTO 16004KT 10SM BKN039 OVC050 13/10 A3023 RMK AO2 53004 T01270100 OVC V BKN SLP163

More Conditions Fewer Conditions

10-Day Weather Forecast

Almanac

Astronomy

Sep. 23, 2014 Rise Set
Actual Time 7:12 AM MDT 7:19 PM MDT
Civil Twilight 6:44 AM MDT 7:48 PM MDT
Nautical Twilight 6:10 AM MDT 8:21 PM MDT
Astronomical Twilight 5:36 AM MDT 8:56 PM MDT
Moon 6:40 AM MDT 6:59 PM MDT
Length of Visible Light 13h 04m
Length of Day
12h 06m
Tomorrow will be 2m 59s shorter.
Waning Crescent, 1% of the Moon is Illuminated
Today
Waning Crescent
Sep 24
New
Oct 1
First Quarter
Oct 8
Full
Oct 15
Last Quarter

Today's Extremes

State Highs State Lows

Community

WunderPhotos

Upload Photos

1,755,643 photos uploaded!

Nearby

Snow Depth

Station Depth Elevation
Mosquito Ridge 0 in 5200 ft
Wildhorse Divide 0 in 6490 ft
Franklin Basin 2 in 8170 ft
Somsen Ranch 1 in 6800 ft
Lookout 0 in 5140 ft

Earthquake Activity

City Distance Mag. Time & Date
No recent earthquake activity has been reported nearby.
Minimum magnitude displayed is 2.5.

Coastal Water Temperatures

Place Temperature
No Stations Reporting

Nearby Weather Stations